sensor_id;sensor_type;location;lat;lon;timestamp;temperature;humidity
30999;DHT22;20549;50.042;8.968;2023-07-24T00:01:28;21.60;65.00
30999;DHT22;20549;50.042;8.968;2023-07-24T00:03:54;21.50;64.20
30999;DHT22;20549;50.042;8.968;2023-07-24T00:06:21;21.50;64.30
30999;DHT22;20549;50.042;8.968;2023-07-24T00:08:47;21.50;64.30
30999;DHT22;20549;50.042;8.968;2023-07-24T00:11:14;21.50;64.30
30999;DHT22;20549;50.042;8.968;2023-07-24T00:13:41;21.50;64.40
30999;DHT22;20549;50.042;8.968;2023-07-24T00:16:07;21.50;64.40
30999;DHT22;20549;50.042;8.968;2023-07-24T00:18:34;21.50;64.50
30999;DHT22;20549;50.042;8.968;2023-07-24T00:21:00;21.50;64.50
30999;DHT22;20549;50.042;8.968;2023-07-24T00:23:27;21.60;64.60
30999;DHT22;20549;50.042;8.968;2023-07-24T00:25:54;21.60;64.60
30999;DHT22;20549;50.042;8.968;2023-07-24T00:28:20;21.60;64.60
30999;DHT22;20549;50.042;8.968;2023-07-24T00:30:47;21.60;64.60
30999;DHT22;20549;50.042;8.968;2023-07-24T00:33:13;21.60;64.80
30999;DHT22;20549;50.042;8.968;2023-07-24T00:35:40;21.60;64.70
30999;DHT22;20549;50.042;8.968;2023-07-24T00:38:06;21.60;64.80
30999;DHT22;20549;50.042;8.968;2023-07-24T00:40:33;21.60;64.90
30999;DHT22;20549;50.042;8.968;2023-07-24T00:43:00;21.60;65.00
30999;DHT22;20549;50.042;8.968;2023-07-24T00:45:26;21.60;65.00
30999;DHT22;20549;50.042;8.968;2023-07-24T00:47:53;21.60;65.10
30999;DHT22;20549;50.042;8.968;2023-07-24T00:50:19;21.60;65.20
30999;DHT22;20549;50.042;8.968;2023-07-24T00:52:46;21.60;65.30
30999;DHT22;20549;50.042;8.968;2023-07-24T00:55:13;21.60;65.40
30999;DHT22;20549;50.042;8.968;2023-07-24T00:57:39;21.60;65.40
30999;DHT22;20549;50.042;8.968;2023-07-24T01:00:06;21.60;65.60
30999;DHT22;20549;50.042;8.968;2023-07-24T01:02:33;21.60;65.60
30999;DHT22;20549;50.042;8.968;2023-07-24T01:04:59;21.60;65.60
30999;DHT22;20549;50.042;8.968;2023-07-24T01:07:26;21.60;65.60
30999;DHT22;20549;50.042;8.968;2023-07-24T01:09:52;21.70;65.70
30999;DHT22;20549;50.042;8.968;2023-07-24T01:12:35;21.70;65.70
30999;DHT22;20549;50.042;8.968;2023-07-24T01:15:08;21.70;65.70
30999;DHT22;20549;50.042;8.968;2023-07-24T01:17:33;21.70;65.70
30999;DHT22;20549;50.042;8.968;2023-07-24T01:19:59;21.70;65.70
30999;DHT22;20549;50.042;8.968;2023-07-24T01:25:16;21.70;65.70
30999;DHT22;20549;50.042;8.968;2023-07-24T01:27:33;21.70;65.60
30999;DHT22;20549;50.042;8.968;2023-07-24T01:30:00;21.70;65.60
30999;DHT22;20549;50.042;8.968;2023-07-24T01:32:27;21.70;65.80
30999;DHT22;20549;50.042;8.968;2023-07-24T01:34:53;21.70;65.80
30999;DHT22;20549;50.042;8.968;2023-07-24T01:37:20;21.70;65.90
30999;DHT22;20549;50.042;8.968;2023-07-24T01:39:46;21.70;66.00
30999;DHT22;20549;50.042;8.968;2023-07-24T01:42:13;21.70;66.20
30999;DHT22;20549;50.042;8.968;2023-07-24T01:44:40;21.70;66.30
30999;DHT22;20549;50.042;8.968;2023-07-24T01:47:06;21.60;66.30
30999;DHT22;20549;50.042;8.968;2023-07-24T01:49:33;21.70;66.50
30999;DHT22;20549;50.042;8.968;2023-07-24T01:51:59;21.60;66.30
30999;DHT22;20549;50.042;8.968;2023-07-24T01:54:26;21.60;66.40
30999;DHT22;20549;50.042;8.968;2023-07-24T01:56:52;21.60;66.40
30999;DHT22;20549;50.042;8.968;2023-07-24T01:59:19;21.60;66.50
30999;DHT22;20549;50.042;8.968;2023-07-24T02:01:46;21.60;66.70
30999;DHT22;20549;50.042;8.968;2023-07-24T02:04:12;21.50;66.60
30999;DHT22;20549;50.042;8.968;2023-07-24T02:06:39;21.50;66.70
30999;DHT22;20549;50.042;8.968;2023-07-24T02:09:05;21.50;66.70
30999;DHT22;20549;50.042;8.968;2023-07-24T02:11:32;21.50;66.80
30999;DHT22;20549;50.042;8.968;2023-07-24T02:13:59;21.50;66.80
30999;DHT22;20549;50.042;8.968;2023-07-24T02:16:25;21.50;66.90
30999;DHT22;20549;50.042;8.968;2023-07-24T02:18:52;21.50;66.90
30999;DHT22;20549;50.042;8.968;2023-07-24T02:21:18;21.40;66.90
30999;DHT22;20549;50.042;8.968;2023-07-24T02:23:45;21.50;66.90
30999;DHT22;20549;50.042;8.968;2023-07-24T02:26:12;21.40;67.00
30999;DHT22;20549;50.042;8.968;2023-07-24T02:28:38;21.40;66.90
30999;DHT22;20549;50.042;8.968;2023-07-24T02:31:05;21.40;67.00
30999;DHT22;20549;50.042;8.968;2023-07-24T02:33:31;21.40;67.10
30999;DHT22;20549;50.042;8.968;2023-07-24T02:35:58;21.30;67.30
30999;DHT22;20549;50.042;8.968;2023-07-24T02:38:25;21.30;67.20
30999;DHT22;20549;50.042;8.968;2023-07-24T02:40:51;21.30;67.20
30999;DHT22;20549;50.042;8.968;2023-07-24T02:43:18;21.30;67.20
30999;DHT22;20549;50.042;8.968;2023-07-24T02:45:44;21.30;67.20
30999;DHT22;20549;50.042;8.968;2023-07-24T02:48:11;21.30;67.20
30999;DHT22;20549;50.042;8.968;2023-07-24T02:50:37;21.30;67.30
30999;DHT22;20549;50.042;8.968;2023-07-24T02:53:04;21.30;67.20
30999;DHT22;20549;50.042;8.968;2023-07-24T02:55:31;21.30;67.20
30999;DHT22;20549;50.042;8.968;2023-07-24T02:57:57;21.30;67.30
30999;DHT22;20549;50.042;8.968;2023-07-24T03:00:24;21.30;67.20
30999;DHT22;20549;50.042;8.968;2023-07-24T03:02:51;21.20;67.10
30999;DHT22;20549;50.042;8.968;2023-07-24T03:05:17;21.20;67.00
30999;DHT22;20549;50.042;8.968;2023-07-24T03:07:44;21.20;67.00
30999;DHT22;20549;50.042;8.968;2023-07-24T03:10:10;21.10;66.80
30999;DHT22;20549;50.042;8.968;2023-07-24T03:12:37;21.10;66.80
30999;DHT22;20549;50.042;8.968;2023-07-24T03:15:03;21.00;66.90
30999;DHT22;20549;50.042;8.968;2023-07-24T03:17:30;20.90;66.90
30999;DHT22;20549;50.042;8.968;2023-07-24T03:19:57;20.90;67.00
30999;DHT22;20549;50.042;8.968;2023-07-24T03:22:23;20.80;67.00
30999;DHT22;20549;50.042;8.968;2023-07-24T03:24:50;20.70;67.10
30999;DHT22;20549;50.042;8.968;2023-07-24T03:27:16;20.70;67.20
30999;DHT22;20549;50.042;8.968;2023-07-24T03:29:43;20.60;67.20
30999;DHT22;20549;50.042;8.968;2023-07-24T03:32:10;20.50;67.30
30999;DHT22;20549;50.042;8.968;2023-07-24T03:34:36;20.50;67.70
30999;DHT22;20549;50.042;8.968;2023-07-24T03:37:03;20.40;67.60
30999;DHT22;20549;50.042;8.968;2023-07-24T03:39:29;20.30;67.70
30999;DHT22;20549;50.042;8.968;2023-07-24T03:41:56;20.30;67.80
30999;DHT22;20549;50.042;8.968;2023-07-24T03:44:22;20.30;68.00
30999;DHT22;20549;50.042;8.968;2023-07-24T03:46:49;20.20;68.10
30999;DHT22;20549;50.042;8.968;2023-07-24T03:49:16;20.10;68.20
30999;DHT22;20549;50.042;8.968;2023-07-24T03:51:42;20.10;68.40
30999;DHT22;20549;50.042;8.968;2023-07-24T03:54:09;20.10;68.60
30999;DHT22;20549;50.042;8.968;2023-07-24T03:56:35;20.00;68.70
30999;DHT22;20549;50.042;8.968;2023-07-24T03:59:02;20.00;68.80
30999;DHT22;20549;50.042;8.968;2023-07-24T04:01:29;20.00;69.10
30999;DHT22;20549;50.042;8.968;2023-07-24T04:03:55;20.00;69.20
30999;DHT22;20549;50.042;8.968;2023-07-24T04:06:22;19.90;69.30
30999;DHT22;20549;50.042;8.968;2023-07-24T04:08:48;19.90;69.50
30999;DHT22;20549;50.042;8.968;2023-07-24T04:11:15;20.00;69.70
30999;DHT22;20549;50.042;8.968;2023-07-24T04:13:42;20.00;69.90
30999;DHT22;20549;50.042;8.968;2023-07-24T04:16:08;20.00;70.00
30999;DHT22;20549;50.042;8.968;2023-07-24T04:18:35;20.10;70.00
30999;DHT22;20549;50.042;8.968;2023-07-24T04:21:01;20.10;70.00
30999;DHT22;20549;50.042;8.968;2023-07-24T04:23:28;20.20;70.00
30999;DHT22;20549;50.042;8.968;2023-07-24T04:25:55;20.30;70.00
30999;DHT22;20549;50.042;8.968;2023-07-24T04:28:21;20.40;70.00
30999;DHT22;20549;50.042;8.968;2023-07-24T04:30:48;20.50;69.80
30999;DHT22;20549;50.042;8.968;2023-07-24T04:33:14;20.60;69.70
30999;DHT22;20549;50.042;8.968;2023-07-24T04:35:41;20.70;69.50
30999;DHT22;20549;50.042;8.968;2023-07-24T04:38:07;20.70;69.30
30999;DHT22;20549;50.042;8.968;2023-07-24T04:40:34;20.80;69.20
30999;DHT22;20549;50.042;8.968;2023-07-24T04:43:01;20.90;69.00
30999;DHT22;20549;50.042;8.968;2023-07-24T04:45:27;21.00;68.90
30999;DHT22;20549;50.042;8.968;2023-07-24T04:47:54;21.10;68.80
30999;DHT22;20549;50.042;8.968;2023-07-24T04:50:20;21.20;68.70
30999;DHT22;20549;50.042;8.968;2023-07-24T04:52:47;21.30;68.70
30999;DHT22;20549;50.042;8.968;2023-07-24T04:55:14;21.50;68.50
30999;DHT22;20549;50.042;8.968;2023-07-24T04:57:40;21.60;68.40
30999;DHT22;20549;50.042;8.968;2023-07-24T05:00:07;21.70;68.20
30999;DHT22;20549;50.042;8.968;2023-07-24T05:02:34;21.90;68.00
30999;DHT22;20549;50.042;8.968;2023-07-24T05:05:00;22.00;67.60
30999;DHT22;20549;50.042;8.968;2023-07-24T05:07:27;22.10;67.30
30999;DHT22;20549;50.042;8.968;2023-07-24T05:09:53;22.20;67.10
30999;DHT22;20549;50.042;8.968;2023-07-24T05:12:20;22.30;66.80
30999;DHT22;20549;50.042;8.968;2023-07-24T05:14:46;22.40;66.60
30999;DHT22;20549;50.042;8.968;2023-07-24T05:17:13;22.50;67.20
30999;DHT22;20549;50.042;8.968;2023-07-24T05:19:40;22.50;66.00
30999;DHT22;20549;50.042;8.968;2023-07-24T05:22:06;22.60;65.90
30999;DHT22;20549;50.042;8.968;2023-07-24T05:24:33;22.60;65.70
30999;DHT22;20549;50.042;8.968;2023-07-24T05:26:59;22.70;65.50
30999;DHT22;20549;50.042;8.968;2023-07-24T05:29:26;22.70;65.30
30999;DHT22;20549;50.042;8.968;2023-07-24T05:31:53;22.70;65.30
30999;DHT22;20549;50.042;8.968;2023-07-24T05:34:19;22.70;65.30
30999;DHT22;20549;50.042;8.968;2023-07-24T05:36:46;22.80;65.30
30999;DHT22;20549;50.042;8.968;2023-07-24T05:39:12;22.80;65.50
30999;DHT22;20549;50.042;8.968;2023-07-24T05:41:39;22.90;65.60
30999;DHT22;20549;50.042;8.968;2023-07-24T05:44:06;23.00;65.60
30999;DHT22;20549;50.042;8.968;2023-07-24T05:46:32;23.10;65.70
30999;DHT22;20549;50.042;8.968;2023-07-24T05:48:59;23.20;65.60
30999;DHT22;20549;50.042;8.968;2023-07-24T05:51:25;23.40;65.50
30999;DHT22;20549;50.042;8.968;2023-07-24T05:53:52;23.60;65.40
30999;DHT22;20549;50.042;8.968;2023-07-24T05:56:18;23.70;65.10
30999;DHT22;20549;50.042;8.968;2023-07-24T05:58:45;23.90;64.90
30999;DHT22;20549;50.042;8.968;2023-07-24T06:01:12;24.10;64.60
30999;DHT22;20549;50.042;8.968;2023-07-24T06:03:38;24.30;64.30
30999;DHT22;20549;50.042;8.968;2023-07-24T06:06:05;24.50;64.10
30999;DHT22;20549;50.042;8.968;2023-07-24T06:08:31;24.70;63.80
30999;DHT22;20549;50.042;8.968;2023-07-24T06:10:58;24.90;63.30
30999;DHT22;20549;50.042;8.968;2023-07-24T06:13:25;25.10;62.90
30999;DHT22;20549;50.042;8.968;2023-07-24T06:15:51;25.20;62.20
30999;DHT22;20549;50.042;8.968;2023-07-24T06:18:18;25.30;61.70
30999;DHT22;20549;50.042;8.968;2023-07-24T06:20:44;25.40;61.20
30999;DHT22;20549;50.042;8.968;2023-07-24T06:23:11;25.50;61.00
30999;DHT22;20549;50.042;8.968;2023-07-24T06:25:38;25.50;61.70
30999;DHT22;20549;50.042;8.968;2023-07-24T06:28:04;25.50;60.70
30999;DHT22;20549;50.042;8.968;2023-07-24T06:30:31;25.50;60.40
30999;DHT22;20549;50.042;8.968;2023-07-24T06:32:57;25.60;60.10
30999;DHT22;20549;50.042;8.968;2023-07-24T06:35:24;25.60;60.10
30999;DHT22;20549;50.042;8.968;2023-07-24T06:37:50;25.60;60.00
30999;DHT22;20549;50.042;8.968;2023-07-24T06:40:17;25.60;60.00
30999;DHT22;20549;50.042;8.968;2023-07-24T06:42:44;25.60;60.00
30999;DHT22;20549;50.042;8.968;2023-07-24T06:45:10;25.70;60.10
30999;DHT22;20549;50.042;8.968;2023-07-24T06:47:37;25.70;60.10
30999;DHT22;20549;50.042;8.968;2023-07-24T06:50:03;25.80;60.20
30999;DHT22;20549;50.042;8.968;2023-07-24T06:52:31;25.90;60.30
30999;DHT22;20549;50.042;8.968;2023-07-24T06:54:57;26.00;60.30
30999;DHT22;20549;50.042;8.968;2023-07-24T06:57:23;26.20;60.40
30999;DHT22;20549;50.042;8.968;2023-07-24T06:59:50;26.40;60.30
30999;DHT22;20549;50.042;8.968;2023-07-24T07:02:16;26.60;60.30
30999;DHT22;20549;50.042;8.968;2023-07-24T07:04:43;26.90;60.00
30999;DHT22;20549;50.042;8.968;2023-07-24T07:07:10;27.10;59.80
30999;DHT22;20549;50.042;8.968;2023-07-24T07:09:36;27.30;59.30
30999;DHT22;20549;50.042;8.968;2023-07-24T07:12:03;27.60;59.00
30999;DHT22;20549;50.042;8.968;2023-07-24T07:14:29;27.80;58.60
30999;DHT22;20549;50.042;8.968;2023-07-24T07:16:56;28.10;59.00
30999;DHT22;20549;50.042;8.968;2023-07-24T07:19:23;28.50;59.50
30999;DHT22;20549;50.042;8.968;2023-07-24T07:21:49;29.10;59.90
30999;DHT22;20549;50.042;8.968;2023-07-24T07:24:16;29.80;60.10
30999;DHT22;20549;50.042;8.968;2023-07-24T07:26:42;30.70;59.80
30999;DHT22;20549;50.042;8.968;2023-07-24T07:29:09;31.60;58.40
30999;DHT22;20549;50.042;8.968;2023-07-24T07:31:35;32.40;56.90
30999;DHT22;20549;50.042;8.968;2023-07-24T07:34:02;33.00;55.30
30999;DHT22;20549;50.042;8.968;2023-07-24T07:36:29;33.60;54.20
30999;DHT22;20549;50.042;8.968;2023-07-24T07:38:55;34.20;53.80
30999;DHT22;20549;50.042;8.968;2023-07-24T07:41:22;34.90;53.60
30999;DHT22;20549;50.042;8.968;2023-07-24T07:43:48;35.60;52.50
30999;DHT22;20549;50.042;8.968;2023-07-24T07:46:15;36.30;51.80
30999;DHT22;20549;50.042;8.968;2023-07-24T07:48:42;37.10;51.30
30999;DHT22;20549;50.042;8.968;2023-07-24T07:51:08;37.90;50.30
30999;DHT22;20549;50.042;8.968;2023-07-24T07:53:35;38.60;49.30
30999;DHT22;20549;50.042;8.968;2023-07-24T07:56:01;39.30;48.10
30999;DHT22;20549;50.042;8.968;2023-07-24T07:58:28;39.90;46.60
30999;DHT22;20549;50.042;8.968;2023-07-24T08:00:55;40.40;45.60
30999;DHT22;20549;50.042;8.968;2023-07-24T08:03:21;40.80;45.00
30999;DHT22;20549;50.042;8.968;2023-07-24T08:05:48;41.20;44.20
30999;DHT22;20549;50.042;8.968;2023-07-24T08:08:14;41.60;43.50
30999;DHT22;20549;50.042;8.968;2023-07-24T08:10:41;41.90;42.40
30999;DHT22;20549;50.042;8.968;2023-07-24T08:13:08;42.10;41.40
30999;DHT22;20549;50.042;8.968;2023-07-24T08:15:35;42.20;40.50
30999;DHT22;20549;50.042;8.968;2023-07-24T08:18:01;42.10;40.10
30999;DHT22;20549;50.042;8.968;2023-07-24T08:20:27;42.00;39.40
30999;DHT22;20549;50.042;8.968;2023-07-24T08:22:54;41.70;39.00
30999;DHT22;20549;50.042;8.968;2023-07-24T08:25:21;41.50;38.80
30999;DHT22;20549;50.042;8.968;2023-07-24T08:27:47;41.10;38.70
30999;DHT22;20549;50.042;8.968;2023-07-24T08:30:14;40.70;38.50
30999;DHT22;20549;50.042;8.968;2023-07-24T08:32:40;40.30;38.40
30999;DHT22;20549;50.042;8.968;2023-07-24T08:35:07;39.80;38.30
30999;DHT22;20549;50.042;8.968;2023-07-24T08:37:33;39.40;38.40
30999;DHT22;20549;50.042;8.968;2023-07-24T08:40:00;38.90;38.60
30999;DHT22;20549;50.042;8.968;2023-07-24T08:42:27;38.40;38.70
30999;DHT22;20549;50.042;8.968;2023-07-24T08:44:53;38.00;39.00
30999;DHT22;20549;50.042;8.968;2023-07-24T08:47:20;37.50;39.20
30999;DHT22;20549;50.042;8.968;2023-07-24T08:49:46;37.10;39.40
30999;DHT22;20549;50.042;8.968;2023-07-24T08:52:13;36.70;39.60
30999;DHT22;20549;50.042;8.968;2023-07-24T08:54:40;36.40;40.00
30999;DHT22;20549;50.042;8.968;2023-07-24T08:57:06;36.00;40.30
30999;DHT22;20549;50.042;8.968;2023-07-24T08:59:33;35.70;40.40
30999;DHT22;20549;50.042;8.968;2023-07-24T09:01:59;35.40;40.50
30999;DHT22;20549;50.042;8.968;2023-07-24T09:04:26;35.10;40.70
30999;DHT22;20549;50.042;8.968;2023-07-24T09:06:53;34.80;40.70
30999;DHT22;20549;50.042;8.968;2023-07-24T09:09:19;34.50;41.00
30999;DHT22;20549;50.042;8.968;2023-07-24T09:11:49;34.20;41.20
30999;DHT22;20549;50.042;8.968;2023-07-24T09:14:24;34.00;41.50
30999;DHT22;20549;50.042;8.968;2023-07-24T09:17:06;33.70;41.80
30999;DHT22;20549;50.042;8.968;2023-07-24T09:19:32;33.40;42.80
30999;DHT22;20549;50.042;8.968;2023-07-24T09:22:12;33.20;42.50
30999;DHT22;20549;50.042;8.968;2023-07-24T09:24:35;33.10;42.80
30999;DHT22;20549;50.042;8.968;2023-07-24T09:27:04;33.00;43.10
30999;DHT22;20549;50.042;8.968;2023-07-24T09:29:31;33.00;43.30
30999;DHT22;20549;50.042;8.968;2023-07-24T09:31:58;33.10;43.70
30999;DHT22;20549;50.042;8.968;2023-07-24T09:34:24;33.30;44.20
30999;DHT22;20549;50.042;8.968;2023-07-24T09:36:51;33.60;44.70
30999;DHT22;20549;50.042;8.968;2023-07-24T09:39:26;34.10;44.40
30999;DHT22;20549;50.042;8.968;2023-07-24T09:41:53;34.50;43.80
30999;DHT22;20549;50.042;8.968;2023-07-24T09:44:19;34.70;43.00
30999;DHT22;20549;50.042;8.968;2023-07-24T09:46:46;34.80;42.30
30999;DHT22;20549;50.042;8.968;2023-07-24T09:49:13;34.80;42.00
30999;DHT22;20549;50.042;8.968;2023-07-24T09:51:39;34.60;41.70
30999;DHT22;20549;50.042;8.968;2023-07-24T09:54:28;34.30;41.60
30999;DHT22;20549;50.042;8.968;2023-07-24T09:56:50;34.00;41.70
30999;DHT22;20549;50.042;8.968;2023-07-24T09:59:17;33.70;41.90
30999;DHT22;20549;50.042;8.968;2023-07-24T10:01:44;33.30;42.10
30999;DHT22;20549;50.042;8.968;2023-07-24T10:04:10;32.90;42.50
30999;DHT22;20549;50.042;8.968;2023-07-24T10:06:37;32.50;42.90
30999;DHT22;20549;50.042;8.968;2023-07-24T10:09:03;32.20;43.30
30999;DHT22;20549;50.042;8.968;2023-07-24T10:11:30;32.00;43.90
30999;DHT22;20549;50.042;8.968;2023-07-24T10:13:56;31.70;44.30
30999;DHT22;20549;50.042;8.968;2023-07-24T10:16:23;31.70;44.80
30999;DHT22;20549;50.042;8.968;2023-07-24T10:18:50;31.60;45.10
30999;DHT22;20549;50.042;8.968;2023-07-24T10:21:16;31.60;45.30
30999;DHT22;20549;50.042;8.968;2023-07-24T10:23:44;31.50;45.30
30999;DHT22;20549;50.042;8.968;2023-07-24T10:26:09;31.50;45.30
30999;DHT22;20549;50.042;8.968;2023-07-24T10:28:39;31.40;45.30
30999;DHT22;20549;50.042;8.968;2023-07-24T10:31:21;31.40;45.30
30999;DHT22;20549;50.042;8.968;2023-07-24T10:33:47;31.20;45.40
30999;DHT22;20549;50.042;8.968;2023-07-24T10:36:16;31.10;45.70
30999;DHT22;20549;50.042;8.968;2023-07-24T10:38:40;31.00;46.00
30999;DHT22;20549;50.042;8.968;2023-07-24T10:41:07;30.90;46.10
30999;DHT22;20549;50.042;8.968;2023-07-24T10:43:43;30.80;46.30
30999;DHT22;20549;50.042;8.968;2023-07-24T10:46:09;30.80;46.40
30999;DHT22;20549;50.042;8.968;2023-07-24T10:48:35;30.80;46.40
30999;DHT22;20549;50.042;8.968;2023-07-24T10:51:08;30.80;46.70
30999;DHT22;20549;50.042;8.968;2023-07-24T10:53:37;30.70;46.60
30999;DHT22;20549;50.042;8.968;2023-07-24T10:56:04;30.70;46.70
30999;DHT22;20549;50.042;8.968;2023-07-24T10:58:30;30.70;46.90
30999;DHT22;20549;50.042;8.968;2023-07-24T11:00:56;30.60;46.90
30999;DHT22;20549;50.042;8.968;2023-07-24T11:03:23;30.60;47.10
30999;DHT22;20549;50.042;8.968;2023-07-24T11:05:50;30.60;47.40
30999;DHT22;20549;50.042;8.968;2023-07-24T11:08:17;30.60;47.60
30999;DHT22;20549;50.042;8.968;2023-07-24T11:10:46;30.70;47.90
30999;DHT22;20549;50.042;8.968;2023-07-24T11:13:13;30.80;47.90
30999;DHT22;20549;50.042;8.968;2023-07-24T11:15:39;30.90;47.90
30999;DHT22;20549;50.042;8.968;2023-07-24T11:18:05;31.10;47.90
30999;DHT22;20549;50.042;8.968;2023-07-24T11:20:32;31.20;47.90
30999;DHT22;20549;50.042;8.968;2023-07-24T11:22:59;31.40;47.60
30999;DHT22;20549;50.042;8.968;2023-07-24T11:25:25;31.60;47.50
30999;DHT22;20549;50.042;8.968;2023-07-24T11:27:52;31.70;47.20
30999;DHT22;20549;50.042;8.968;2023-07-24T11:30:22;31.90;46.90
30999;DHT22;20549;50.042;8.968;2023-07-24T11:32:48;32.00;46.50
30999;DHT22;20549;50.042;8.968;2023-07-24T11:35:15;32.20;46.40
30999;DHT22;20549;50.042;8.968;2023-07-24T11:37:41;32.30;46.00
30999;DHT22;20549;50.042;8.968;2023-07-24T11:40:08;32.40;45.80
30999;DHT22;20549;50.042;8.968;2023-07-24T11:42:38;32.50;45.50
30999;DHT22;20549;50.042;8.968;2023-07-24T11:45:04;32.50;45.30
30999;DHT22;20549;50.042;8.968;2023-07-24T11:47:31;32.50;45.30
30999;DHT22;20549;50.042;8.968;2023-07-24T11:49:59;32.40;45.30
30999;DHT22;20549;50.042;8.968;2023-07-24T11:52:24;32.30;45.60
30999;DHT22;20549;50.042;8.968;2023-07-24T11:54:57;32.30;45.70
30999;DHT22;20549;50.042;8.968;2023-07-24T11:57:23;32.20;45.80
30999;DHT22;20549;50.042;8.968;2023-07-24T11:59:50;32.20;45.80
30999;DHT22;20549;50.042;8.968;2023-07-24T12:02:16;32.20;46.00
30999;DHT22;20549;50.042;8.968;2023-07-24T12:04:43;32.20;46.10
30999;DHT22;20549;50.042;8.968;2023-07-24T12:07:10;32.30;46.10
30999;DHT22;20549;50.042;8.968;2023-07-24T12:09:36;32.30;46.60
30999;DHT22;20549;50.042;8.968;2023-07-24T12:12:05;32.30;45.80
30999;DHT22;20549;50.042;8.968;2023-07-24T12:14:32;32.40;45.90
30999;DHT22;20549;50.042;8.968;2023-07-24T12:17:02;32.40;45.60
30999;DHT22;20549;50.042;8.968;2023-07-24T12:19:28;32.30;45.60
30999;DHT22;20549;50.042;8.968;2023-07-24T12:21:54;32.30;45.70
30999;DHT22;20549;50.042;8.968;2023-07-24T12:24:21;32.20;45.50
30999;DHT22;20549;50.042;8.968;2023-07-24T12:26:48;32.20;45.70
30999;DHT22;20549;50.042;8.968;2023-07-24T12:29:14;32.20;45.90
30999;DHT22;20549;50.042;8.968;2023-07-24T12:31:41;32.20;46.00
30999;DHT22;20549;50.042;8.968;2023-07-24T12:34:07;32.20;46.00
30999;DHT22;20549;50.042;8.968;2023-07-24T12:36:34;32.30;45.90
30999;DHT22;20549;50.042;8.968;2023-07-24T12:39:01;32.30;45.60
30999;DHT22;20549;50.042;8.968;2023-07-24T12:41:27;32.30;45.40
30999;DHT22;20549;50.042;8.968;2023-07-24T12:43:54;32.30;45.30
30999;DHT22;20549;50.042;8.968;2023-07-24T12:46:20;32.20;45.20
30999;DHT22;20549;50.042;8.968;2023-07-24T12:48:47;32.20;45.30
30999;DHT22;20549;50.042;8.968;2023-07-24T12:51:14;32.20;45.40
30999;DHT22;20549;50.042;8.968;2023-07-24T12:53:40;32.20;45.10
30999;DHT22;20549;50.042;8.968;2023-07-24T12:56:07;32.20;44.90
30999;DHT22;20549;50.042;8.968;2023-07-24T12:58:33;32.20;45.10
30999;DHT22;20549;50.042;8.968;2023-07-24T13:01:00;32.30;44.60
30999;DHT22;20549;50.042;8.968;2023-07-24T13:03:26;32.30;44.40
30999;DHT22;20549;50.042;8.968;2023-07-24T13:05:53;32.40;44.30
30999;DHT22;20549;50.042;8.968;2023-07-24T13:08:20;32.50;44.10
30999;DHT22;20549;50.042;8.968;2023-07-24T13:10:46;32.50;44.00
30999;DHT22;20549;50.042;8.968;2023-07-24T13:13:13;32.50;44.30
30999;DHT22;20549;50.042;8.968;2023-07-24T13:15:39;32.60;44.60
30999;DHT22;20549;50.042;8.968;2023-07-24T13:18:06;32.70;44.60
30999;DHT22;20549;50.042;8.968;2023-07-24T13:20:33;32.60;44.50
30999;DHT22;20549;50.042;8.968;2023-07-24T13:22:59;32.60;44.60
30999;DHT22;20549;50.042;8.968;2023-07-24T13:25:26;32.50;44.60
30999;DHT22;20549;50.042;8.968;2023-07-24T13:27:52;32.50;44.80
30999;DHT22;20549;50.042;8.968;2023-07-24T13:30:19;32.50;45.00
30999;DHT22;20549;50.042;8.968;2023-07-24T13:32:46;32.50;44.90
30999;DHT22;20549;50.042;8.968;2023-07-24T13:35:12;32.40;45.10
30999;DHT22;20549;50.042;8.968;2023-07-24T13:37:39;32.40;45.10
30999;DHT22;20549;50.042;8.968;2023-07-24T13:40:05;32.40;45.10
30999;DHT22;20549;50.042;8.968;2023-07-24T13:42:32;32.30;45.00
30999;DHT22;20549;50.042;8.968;2023-07-24T13:44:59;32.10;45.00
30999;DHT22;20549;50.042;8.968;2023-07-24T13:47:25;32.00;45.20
30999;DHT22;20549;50.042;8.968;2023-07-24T13:49:52;31.80;45.30
30999;DHT22;20549;50.042;8.968;2023-07-24T13:52:18;31.60;45.50
30999;DHT22;20549;50.042;8.968;2023-07-24T13:54:45;31.50;45.70
30999;DHT22;20549;50.042;8.968;2023-07-24T13:57:12;31.40;45.90
30999;DHT22;20549;50.042;8.968;2023-07-24T13:59:38;31.20;46.00
30999;DHT22;20549;50.042;8.968;2023-07-24T14:02:05;31.10;46.30
30999;DHT22;20549;50.042;8.968;2023-07-24T14:04:31;31.10;46.50
30999;DHT22;20549;50.042;8.968;2023-07-24T14:06:58;31.00;46.60
30999;DHT22;20549;50.042;8.968;2023-07-24T14:09:24;30.90;46.60
30999;DHT22;20549;50.042;8.968;2023-07-24T14:11:51;30.80;47.10
30999;DHT22;20549;50.042;8.968;2023-07-24T14:14:18;30.70;47.60
30999;DHT22;20549;50.042;8.968;2023-07-24T14:16:44;30.60;48.10
30999;DHT22;20549;50.042;8.968;2023-07-24T14:19:11;30.50;48.20
30999;DHT22;20549;50.042;8.968;2023-07-24T14:21:37;30.30;48.90
30999;DHT22;20549;50.042;8.968;2023-07-24T14:24:04;30.10;49.10
30999;DHT22;20549;50.042;8.968;2023-07-24T14:26:31;29.90;50.20
30999;DHT22;20549;50.042;8.968;2023-07-24T14:28:57;29.60;50.70
30999;DHT22;20549;50.042;8.968;2023-07-24T14:31:24;29.30;51.20
30999;DHT22;20549;50.042;8.968;2023-07-24T14:33:50;29.00;51.80
30999;DHT22;20549;50.042;8.968;2023-07-24T14:36:17;28.80;52.60
30999;DHT22;20549;50.042;8.968;2023-07-24T14:38:44;28.50;53.30
30999;DHT22;20549;50.042;8.968;2023-07-24T14:41:10;28.30;53.80
30999;DHT22;20549;50.042;8.968;2023-07-24T14:43:37;28.10;54.50
30999;DHT22;20549;50.042;8.968;2023-07-24T14:46:03;28.00;55.00
30999;DHT22;20549;50.042;8.968;2023-07-24T14:48:30;27.80;55.40
30999;DHT22;20549;50.042;8.968;2023-07-24T14:50:56;27.80;56.00
30999;DHT22;20549;50.042;8.968;2023-07-24T14:53:23;27.70;56.80
30999;DHT22;20549;50.042;8.968;2023-07-24T14:55:50;27.70;57.00
30999;DHT22;20549;50.042;8.968;2023-07-24T14:58:16;27.70;57.40
30999;DHT22;20549;50.042;8.968;2023-07-24T15:00:43;27.70;57.60
30999;DHT22;20549;50.042;8.968;2023-07-24T15:03:09;27.80;57.60
30999;DHT22;20549;50.042;8.968;2023-07-24T15:05:36;27.80;57.60
30999;DHT22;20549;50.042;8.968;2023-07-24T15:08:03;27.80;57.50
30999;DHT22;20549;50.042;8.968;2023-07-24T15:10:29;27.90;57.40
30999;DHT22;20549;50.042;8.968;2023-07-24T15:12:56;27.90;57.10
30999;DHT22;20549;50.042;8.968;2023-07-24T15:15:22;27.90;57.00
30999;DHT22;20549;50.042;8.968;2023-07-24T15:17:49;27.80;56.70
30999;DHT22;20549;50.042;8.968;2023-07-24T15:20:16;27.80;56.50
30999;DHT22;20549;50.042;8.968;2023-07-24T15:22:42;27.80;56.30
30999;DHT22;20549;50.042;8.968;2023-07-24T15:25:09;27.70;56.30
30999;DHT22;20549;50.042;8.968;2023-07-24T15:27:35;27.70;56.30
30999;DHT22;20549;50.042;8.968;2023-07-24T15:30:02;27.60;56.40